LUK weather

Cincinnati Municipal Airport Lunken Field
Cincinnati, Ohio, United States

Public forecast

Using degrees Fahrenheit for public forecast. Weather courtesy of forecast.io.

Current aviation weather report (METAR) for Cincinnati Municipal Airport Lunken Field

Retrieved 2019/11/21 06:53 UTC (12 minutes ago):

KLUK 210653Z AUTO 00000KT 6SM BR CLR 03/02 A3023 RMK AO2 SLP238 T00280022

Aviation forecast (TAF) for Cincinnati Municipal Airport Lunken Field

Retrieved 2019/11/21 06:48 UTC (17 minutes ago):

TAF KLUK 210547Z 2106/2206 15004KT P6SM BKN200 TEMPO 2106/2108 2SM BR FM211600 19012G20KT P6SM OVC120 FM212100 21016G28KT P6SM VCSH OVC035 FM212300 21015G25KT P6SM VCSH OVC025 FM220200 22012G22KT P6SM VCSH OVC015 FM220500 24010KT P6SM VCSH OVC009